sensor_id;sensor_type;location;lat;lon;timestamp;P1;durP1;ratioP1;P2;durP2;ratioP2
30635;SDS011;17400;52.392;9.750;2024-01-07T00:01:15;10.83;;;5.63;;
30635;SDS011;17400;52.392;9.750;2024-01-07T00:03:45;10.10;;;5.87;;
30635;SDS011;17400;52.392;9.750;2024-01-07T00:06:13;15.20;;;7.30;;
30635;SDS011;17400;52.392;9.750;2024-01-07T00:08:40;10.87;;;6.50;;
30635;SDS011;17400;52.392;9.750;2024-01-07T00:11:08;8.80;;;5.13;;
30635;SDS011;17400;52.392;9.750;2024-01-07T00:13:36;11.40;;;5.43;;
30635;SDS011;17400;52.392;9.750;2024-01-07T00:16:04;11.23;;;5.80;;
30635;SDS011;17400;52.392;9.750;2024-01-07T00:18:32;11.77;;;5.33;;
30635;SDS011;17400;52.392;9.750;2024-01-07T00:21:01;12.77;;;6.07;;
30635;SDS011;17400;52.392;9.750;2024-01-07T00:23:29;12.10;;;7.13;;
30635;SDS011;17400;52.392;9.750;2024-01-07T00:25:57;12.83;;;6.13;;
30635;SDS011;17400;52.392;9.750;2024-01-07T00:28:24;12.30;;;6.37;;
30635;SDS011;17400;52.392;9.750;2024-01-07T00:30:52;15.70;;;6.57;;
30635;SDS011;17400;52.392;9.750;2024-01-07T00:33:20;9.80;;;5.07;;
30635;SDS011;17400;52.392;9.750;2024-01-07T00:35:48;12.27;;;6.23;;
30635;SDS011;17400;52.392;9.750;2024-01-07T00:38:17;11.30;;;6.67;;
30635;SDS011;17400;52.392;9.750;2024-01-07T00:40:44;9.40;;;5.50;;
30635;SDS011;17400;52.392;9.750;2024-01-07T00:43:12;11.57;;;5.77;;
30635;SDS011;17400;52.392;9.750;2024-01-07T00:45:40;13.70;;;6.33;;
30635;SDS011;17400;52.392;9.750;2024-01-07T00:48:07;13.53;;;6.37;;
30635;SDS011;17400;52.392;9.750;2024-01-07T00:50:35;10.33;;;5.97;;
30635;SDS011;17400;52.392;9.750;2024-01-07T00:53:03;11.17;;;6.03;;
30635;SDS011;17400;52.392;9.750;2024-01-07T00:55:33;14.83;;;5.67;;
30635;SDS011;17400;52.392;9.750;2024-01-07T00:58:01;11.90;;;6.47;;
30635;SDS011;17400;52.392;9.750;2024-01-07T01:00:30;11.37;;;6.53;;
30635;SDS011;17400;52.392;9.750;2024-01-07T01:02:58;16.13;;;6.27;;
30635;SDS011;17400;52.392;9.750;2024-01-07T01:05:26;10.63;;;5.53;;
30635;SDS011;17400;52.392;9.750;2024-01-07T01:07:54;15.43;;;6.17;;
30635;SDS011;17400;52.392;9.750;2024-01-07T01:10:23;11.33;;;5.57;;
30635;SDS011;17400;52.392;9.750;2024-01-07T01:12:52;10.03;;;6.13;;
30635;SDS011;17400;52.392;9.750;2024-01-07T01:15:20;12.00;;;6.30;;
30635;SDS011;17400;52.392;9.750;2024-01-07T01:17:48;14.00;;;6.10;;
30635;SDS011;17400;52.392;9.750;2024-01-07T01:20:16;14.90;;;6.13;;
30635;SDS011;17400;52.392;9.750;2024-01-07T01:22:44;12.70;;;6.03;;
30635;SDS011;17400;52.392;9.750;2024-01-07T01:25:12;10.00;;;5.50;;
30635;SDS011;17400;52.392;9.750;2024-01-07T01:27:40;10.20;;;4.33;;
30635;SDS011;17400;52.392;9.750;2024-01-07T01:30:10;10.97;;;5.63;;
30635;SDS011;17400;52.392;9.750;2024-01-07T01:32:38;12.93;;;6.63;;
30635;SDS011;17400;52.392;9.750;2024-01-07T01:35:07;12.90;;;7.47;;
30635;SDS011;17400;52.392;9.750;2024-01-07T01:37:36;16.43;;;6.63;;
30635;SDS011;17400;52.392;9.750;2024-01-07T01:40:04;13.07;;;6.00;;
30635;SDS011;17400;52.392;9.750;2024-01-07T01:42:32;10.33;;;6.17;;
30635;SDS011;17400;52.392;9.750;2024-01-07T01:45:00;16.43;;;7.00;;
30635;SDS011;17400;52.392;9.750;2024-01-07T01:47:30;12.40;;;5.43;;
30635;SDS011;17400;52.392;9.750;2024-01-07T01:49:59;8.53;;;5.33;;
30635;SDS011;17400;52.392;9.750;2024-01-07T01:52:27;10.83;;;5.87;;
30635;SDS011;17400;52.392;9.750;2024-01-07T01:54:55;10.53;;;5.63;;
30635;SDS011;17400;52.392;9.750;2024-01-07T01:57:24;11.00;;;5.13;;
30635;SDS011;17400;52.392;9.750;2024-01-07T01:59:59;9.37;;;5.57;;
30635;SDS011;17400;52.392;9.750;2024-01-07T02:02:32;11.73;;;5.80;;
30635;SDS011;17400;52.392;9.750;2024-01-07T02:05:01;10.63;;;5.63;;
30635;SDS011;17400;52.392;9.750;2024-01-07T02:07:29;10.60;;;5.87;;
30635;SDS011;17400;52.392;9.750;2024-01-07T02:09:58;9.20;;;6.17;;
30635;SDS011;17400;52.392;9.750;2024-01-07T02:12:30;11.03;;;6.37;;
30635;SDS011;17400;52.392;9.750;2024-01-07T02:14:58;10.33;;;5.50;;
30635;SDS011;17400;52.392;9.750;2024-01-07T02:17:25;8.60;;;4.67;;
30635;SDS011;17400;52.392;9.750;2024-01-07T02:19:55;9.33;;;4.03;;
30635;SDS011;17400;52.392;9.750;2024-01-07T02:22:23;8.57;;;4.47;;
30635;SDS011;17400;52.392;9.750;2024-01-07T02:24:52;9.70;;;4.80;;
30635;SDS011;17400;52.392;9.750;2024-01-07T02:27:20;8.63;;;4.27;;
30635;SDS011;17400;52.392;9.750;2024-01-07T02:29:48;8.77;;;4.40;;
30635;SDS011;17400;52.392;9.750;2024-01-07T02:32:16;11.97;;;5.00;;
30635;SDS011;17400;52.392;9.750;2024-01-07T02:34:44;9.77;;;4.90;;
30635;SDS011;17400;52.392;9.750;2024-01-07T02:37:13;8.77;;;4.63;;
30635;SDS011;17400;52.392;9.750;2024-01-07T02:39:41;10.97;;;5.07;;
30635;SDS011;17400;52.392;9.750;2024-01-07T02:42:22;8.43;;;4.70;;
30635;SDS011;17400;52.392;9.750;2024-01-07T02:44:50;7.30;;;5.17;;
30635;SDS011;17400;52.392;9.750;2024-01-07T02:47:18;8.17;;;4.53;;
30635;SDS011;17400;52.392;9.750;2024-01-07T02:49:46;9.83;;;4.73;;
30635;SDS011;17400;52.392;9.750;2024-01-07T02:52:14;7.33;;;4.10;;
30635;SDS011;17400;52.392;9.750;2024-01-07T02:54:42;7.30;;;4.07;;
30635;SDS011;17400;52.392;9.750;2024-01-07T02:57:09;8.50;;;4.63;;
30635;SDS011;17400;52.392;9.750;2024-01-07T02:59:38;9.80;;;3.50;;
30635;SDS011;17400;52.392;9.750;2024-01-07T03:02:06;8.37;;;4.43;;
30635;SDS011;17400;52.392;9.750;2024-01-07T03:04:34;8.77;;;4.70;;
30635;SDS011;17400;52.392;9.750;2024-01-07T03:07:02;6.43;;;4.07;;
30635;SDS011;17400;52.392;9.750;2024-01-07T03:09:30;9.00;;;4.67;;
30635;SDS011;17400;52.392;9.750;2024-01-07T03:11:58;8.90;;;4.43;;
30635;SDS011;17400;52.392;9.750;2024-01-07T03:14:26;6.40;;;4.27;;
30635;SDS011;17400;52.392;9.750;2024-01-07T03:16:55;8.27;;;3.90;;
30635;SDS011;17400;52.392;9.750;2024-01-07T03:19:23;6.90;;;3.20;;
30635;SDS011;17400;52.392;9.750;2024-01-07T03:21:52;7.57;;;3.87;;
30635;SDS011;17400;52.392;9.750;2024-01-07T03:24:20;8.40;;;3.87;;
30635;SDS011;17400;52.392;9.750;2024-01-07T03:26:48;6.33;;;3.37;;
30635;SDS011;17400;52.392;9.750;2024-01-07T03:29:16;6.47;;;4.20;;
30635;SDS011;17400;52.392;9.750;2024-01-07T03:31:44;6.67;;;4.07;;
30635;SDS011;17400;52.392;9.750;2024-01-07T03:34:13;7.37;;;3.93;;
30635;SDS011;17400;52.392;9.750;2024-01-07T03:36:41;6.60;;;3.90;;
30635;SDS011;17400;52.392;9.750;2024-01-07T03:39:09;5.83;;;3.47;;
30635;SDS011;17400;52.392;9.750;2024-01-07T03:41:41;6.23;;;3.30;;
30635;SDS011;17400;52.392;9.750;2024-01-07T03:44:08;8.87;;;4.40;;
30635;SDS011;17400;52.392;9.750;2024-01-07T03:46:36;9.77;;;4.40;;
30635;SDS011;17400;52.392;9.750;2024-01-07T03:49:04;6.23;;;3.93;;
30635;SDS011;17400;52.392;9.750;2024-01-07T03:51:33;7.47;;;4.00;;
30635;SDS011;17400;52.392;9.750;2024-01-07T03:54:01;5.80;;;3.13;;
30635;SDS011;17400;52.392;9.750;2024-01-07T03:56:29;7.40;;;3.90;;
30635;SDS011;17400;52.392;9.750;2024-01-07T03:58:57;4.90;;;3.43;;
30635;SDS011;17400;52.392;9.750;2024-01-07T04:01:27;5.43;;;3.40;;
30635;SDS011;17400;52.392;9.750;2024-01-07T04:03:55;7.13;;;3.13;;
30635;SDS011;17400;52.392;9.750;2024-01-07T04:06:23;6.63;;;2.67;;
30635;SDS011;17400;52.392;9.750;2024-01-07T04:08:52;4.80;;;2.63;;
30635;SDS011;17400;52.392;9.750;2024-01-07T04:11:19;5.83;;;3.43;;
30635;SDS011;17400;52.392;9.750;2024-01-07T04:13:47;4.87;;;3.00;;
30635;SDS011;17400;52.392;9.750;2024-01-07T04:16:16;7.47;;;2.90;;
30635;SDS011;17400;52.392;9.750;2024-01-07T04:18:45;4.60;;;2.70;;
30635;SDS011;17400;52.392;9.750;2024-01-07T04:21:19;4.63;;;2.57;;
30635;SDS011;17400;52.392;9.750;2024-01-07T04:23:47;6.30;;;3.30;;
30635;SDS011;17400;52.392;9.750;2024-01-07T04:26:16;3.60;;;1.57;;
30635;SDS011;17400;52.392;9.750;2024-01-07T04:28:44;3.70;;;2.10;;
30635;SDS011;17400;52.392;9.750;2024-01-07T04:31:12;5.33;;;3.03;;
30635;SDS011;17400;52.392;9.750;2024-01-07T04:33:40;7.53;;;2.67;;
30635;SDS011;17400;52.392;9.750;2024-01-07T04:36:09;4.67;;;2.23;;
30635;SDS011;17400;52.392;9.750;2024-01-07T04:38:37;6.67;;;2.93;;
30635;SDS011;17400;52.392;9.750;2024-01-07T04:41:05;4.60;;;2.27;;
30635;SDS011;17400;52.392;9.750;2024-01-07T04:43:35;5.33;;;3.03;;
30635;SDS011;17400;52.392;9.750;2024-01-07T04:46:03;4.80;;;2.00;;
30635;SDS011;17400;52.392;9.750;2024-01-07T04:48:32;3.50;;;1.80;;
30635;SDS011;17400;52.392;9.750;2024-01-07T04:51:02;4.37;;;2.40;;
30635;SDS011;17400;52.392;9.750;2024-01-07T04:53:30;4.07;;;2.20;;
30635;SDS011;17400;52.392;9.750;2024-01-07T04:55:57;5.27;;;2.23;;
30635;SDS011;17400;52.392;9.750;2024-01-07T04:58:25;6.20;;;2.90;;
30635;SDS011;17400;52.392;9.750;2024-01-07T05:00:54;3.93;;;2.03;;
30635;SDS011;17400;52.392;9.750;2024-01-07T05:03:22;3.57;;;2.17;;
30635;SDS011;17400;52.392;9.750;2024-01-07T05:05:50;4.77;;;2.27;;
30635;SDS011;17400;52.392;9.750;2024-01-07T05:08:18;3.57;;;2.70;;
30635;SDS011;17400;52.392;9.750;2024-01-07T05:10:51;3.47;;;2.03;;
30635;SDS011;17400;52.392;9.750;2024-01-07T05:13:19;3.60;;;2.00;;
30635;SDS011;17400;52.392;9.750;2024-01-07T05:15:46;4.33;;;2.77;;
30635;SDS011;17400;52.392;9.750;2024-01-07T05:18:21;3.53;;;2.23;;
30635;SDS011;17400;52.392;9.750;2024-01-07T05:20:50;5.23;;;2.17;;
30635;SDS011;17400;52.392;9.750;2024-01-07T05:23:18;4.40;;;2.13;;
30635;SDS011;17400;52.392;9.750;2024-01-07T05:25:47;3.93;;;2.70;;
30635;SDS011;17400;52.392;9.750;2024-01-07T05:28:15;5.87;;;2.50;;
30635;SDS011;17400;52.392;9.750;2024-01-07T05:30:45;5.73;;;2.80;;
30635;SDS011;17400;52.392;9.750;2024-01-07T05:33:14;5.63;;;2.90;;
30635;SDS011;17400;52.392;9.750;2024-01-07T05:35:43;5.30;;;2.93;;
30635;SDS011;17400;52.392;9.750;2024-01-07T05:38:10;4.90;;;2.60;;
30635;SDS011;17400;52.392;9.750;2024-01-07T05:40:38;4.33;;;1.90;;
30635;SDS011;17400;52.392;9.750;2024-01-07T05:43:06;6.23;;;2.67;;
30635;SDS011;17400;52.392;9.750;2024-01-07T05:45:34;3.60;;;1.97;;
30635;SDS011;17400;52.392;9.750;2024-01-07T05:48:02;3.37;;;2.30;;
30635;SDS011;17400;52.392;9.750;2024-01-07T05:50:30;4.63;;;2.33;;
30635;SDS011;17400;52.392;9.750;2024-01-07T05:52:59;4.07;;;2.20;;
30635;SDS011;17400;52.392;9.750;2024-01-07T05:55:27;4.83;;;2.27;;
30635;SDS011;17400;52.392;9.750;2024-01-07T05:57:55;3.73;;;2.27;;
30635;SDS011;17400;52.392;9.750;2024-01-07T06:00:23;4.00;;;2.07;;
30635;SDS011;17400;52.392;9.750;2024-01-07T06:02:51;4.83;;;2.70;;
30635;SDS011;17400;52.392;9.750;2024-01-07T06:05:19;4.97;;;3.17;;
30635;SDS011;17400;52.392;9.750;2024-01-07T06:07:46;7.33;;;3.20;;
30635;SDS011;17400;52.392;9.750;2024-01-07T06:10:16;3.23;;;2.03;;
30635;SDS011;17400;52.392;9.750;2024-01-07T06:12:44;4.50;;;2.63;;
30635;SDS011;17400;52.392;9.750;2024-01-07T06:15:11;5.20;;;2.87;;
30635;SDS011;17400;52.392;9.750;2024-01-07T06:17:39;7.17;;;3.13;;
30635;SDS011;17400;52.392;9.750;2024-01-07T06:20:08;4.57;;;2.00;;
30635;SDS011;17400;52.392;9.750;2024-01-07T06:22:36;4.73;;;2.30;;
30635;SDS011;17400;52.392;9.750;2024-01-07T06:25:04;6.90;;;2.40;;
30635;SDS011;17400;52.392;9.750;2024-01-07T06:27:34;3.83;;;2.03;;
30635;SDS011;17400;52.392;9.750;2024-01-07T06:30:02;3.20;;;2.03;;
30635;SDS011;17400;52.392;9.750;2024-01-07T06:32:31;6.27;;;2.93;;
30635;SDS011;17400;52.392;9.750;2024-01-07T06:34:59;6.53;;;2.60;;
30635;SDS011;17400;52.392;9.750;2024-01-07T06:37:27;10.10;;;3.03;;
30635;SDS011;17400;52.392;9.750;2024-01-07T06:39:55;7.37;;;2.83;;
30635;SDS011;17400;52.392;9.750;2024-01-07T06:42:24;5.90;;;2.50;;
30635;SDS011;17400;52.392;9.750;2024-01-07T06:44:54;4.60;;;2.37;;
30635;SDS011;17400;52.392;9.750;2024-01-07T06:47:22;3.73;;;2.00;;
30635;SDS011;17400;52.392;9.750;2024-01-07T06:49:50;5.10;;;2.40;;
30635;SDS011;17400;52.392;9.750;2024-01-07T06:52:18;4.40;;;2.60;;
30635;SDS011;17400;52.392;9.750;2024-01-07T06:54:47;2.70;;;1.90;;
30635;SDS011;17400;52.392;9.750;2024-01-07T06:57:15;5.20;;;2.07;;
30635;SDS011;17400;52.392;9.750;2024-01-07T06:59:43;3.30;;;2.17;;
30635;SDS011;17400;52.392;9.750;2024-01-07T07:02:12;4.37;;;2.63;;
30635;SDS011;17400;52.392;9.750;2024-01-07T07:04:40;4.60;;;2.53;;
30635;SDS011;17400;52.392;9.750;2024-01-07T07:07:08;7.57;;;3.30;;
30635;SDS011;17400;52.392;9.750;2024-01-07T07:09:35;4.13;;;1.83;;
30635;SDS011;17400;52.392;9.750;2024-01-07T07:12:04;4.70;;;2.50;;
30635;SDS011;17400;52.392;9.750;2024-01-07T07:14:34;5.87;;;2.60;;
30635;SDS011;17400;52.392;9.750;2024-01-07T07:17:02;4.90;;;2.43;;
30635;SDS011;17400;52.392;9.750;2024-01-07T07:19:31;3.97;;;2.40;;
30635;SDS011;17400;52.392;9.750;2024-01-07T07:21:59;5.40;;;2.63;;
30635;SDS011;17400;52.392;9.750;2024-01-07T07:24:27;5.90;;;2.53;;
30635;SDS011;17400;52.392;9.750;2024-01-07T07:26:55;4.90;;;2.10;;
30635;SDS011;17400;52.392;9.750;2024-01-07T07:29:23;5.00;;;2.67;;
30635;SDS011;17400;52.392;9.750;2024-01-07T07:31:51;5.77;;;3.83;;
30635;SDS011;17400;52.392;9.750;2024-01-07T07:34:19;4.83;;;2.63;;
30635;SDS011;17400;52.392;9.750;2024-01-07T07:36:48;3.77;;;2.57;;
30635;SDS011;17400;52.392;9.750;2024-01-07T07:39:16;8.10;;;3.00;;
30635;SDS011;17400;52.392;9.750;2024-01-07T07:41:44;4.70;;;2.77;;
30635;SDS011;17400;52.392;9.750;2024-01-07T07:44:12;5.90;;;2.40;;
30635;SDS011;17400;52.392;9.750;2024-01-07T07:46:40;4.77;;;2.67;;
30635;SDS011;17400;52.392;9.750;2024-01-07T07:49:08;4.83;;;2.97;;
30635;SDS011;17400;52.392;9.750;2024-01-07T07:51:35;4.03;;;2.40;;
30635;SDS011;17400;52.392;9.750;2024-01-07T07:54:04;6.77;;;2.57;;
30635;SDS011;17400;52.392;9.750;2024-01-07T07:56:32;5.67;;;2.50;;
30635;SDS011;17400;52.392;9.750;2024-01-07T07:59:02;4.20;;;2.43;;
30635;SDS011;17400;52.392;9.750;2024-01-07T08:01:30;4.73;;;2.57;;
30635;SDS011;17400;52.392;9.750;2024-01-07T08:03:57;5.67;;;2.93;;
30635;SDS011;17400;52.392;9.750;2024-01-07T08:06:25;3.70;;;2.00;;
30635;SDS011;17400;52.392;9.750;2024-01-07T08:08:53;3.13;;;2.20;;
30635;SDS011;17400;52.392;9.750;2024-01-07T08:11:22;3.37;;;2.10;;
30635;SDS011;17400;52.392;9.750;2024-01-07T08:13:51;3.90;;;2.47;;
30635;SDS011;17400;52.392;9.750;2024-01-07T08:16:19;3.77;;;2.20;;
30635;SDS011;17400;52.392;9.750;2024-01-07T08:18:47;6.53;;;3.13;;
30635;SDS011;17400;52.392;9.750;2024-01-07T08:21:16;3.77;;;2.00;;
30635;SDS011;17400;52.392;9.750;2024-01-07T08:23:44;4.27;;;2.33;;
30635;SDS011;17400;52.392;9.750;2024-01-07T08:26:12;5.57;;;2.70;;
30635;SDS011;17400;52.392;9.750;2024-01-07T08:28:46;5.13;;;2.50;;
30635;SDS011;17400;52.392;9.750;2024-01-07T08:31:14;4.30;;;2.17;;
30635;SDS011;17400;52.392;9.750;2024-01-07T08:33:42;4.47;;;2.23;;
30635;SDS011;17400;52.392;9.750;2024-01-07T08:36:12;7.13;;;3.07;;
30635;SDS011;17400;52.392;9.750;2024-01-07T08:38:40;4.90;;;2.63;;
30635;SDS011;17400;52.392;9.750;2024-01-07T08:41:09;4.17;;;2.33;;
30635;SDS011;17400;52.392;9.750;2024-01-07T08:43:38;5.53;;;2.80;;
30635;SDS011;17400;52.392;9.750;2024-01-07T08:46:08;3.90;;;2.53;;
30635;SDS011;17400;52.392;9.750;2024-01-07T08:48:36;4.90;;;2.43;;
30635;SDS011;17400;52.392;9.750;2024-01-07T08:51:07;3.80;;;1.90;;
30635;SDS011;17400;52.392;9.750;2024-01-07T08:53:35;5.77;;;2.30;;
30635;SDS011;17400;52.392;9.750;2024-01-07T08:56:03;5.00;;;2.47;;
30635;SDS011;17400;52.392;9.750;2024-01-07T08:58:33;4.63;;;2.50;;
30635;SDS011;17400;52.392;9.750;2024-01-07T09:01:01;5.40;;;2.20;;
30635;SDS011;17400;52.392;9.750;2024-01-07T09:03:30;5.27;;;2.17;;
30635;SDS011;17400;52.392;9.750;2024-01-07T09:05:58;6.93;;;2.57;;
30635;SDS011;17400;52.392;9.750;2024-01-07T09:08:26;5.67;;;2.37;;
30635;SDS011;17400;52.392;9.750;2024-01-07T09:10:54;3.93;;;2.33;;
30635;SDS011;17400;52.392;9.750;2024-01-07T09:13:22;3.10;;;1.80;;
30635;SDS011;17400;52.392;9.750;2024-01-07T09:15:49;3.60;;;2.13;;
30635;SDS011;17400;52.392;9.750;2024-01-07T09:18:17;2.63;;;1.50;;
30635;SDS011;17400;52.392;9.750;2024-01-07T09:20:47;3.87;;;2.10;;
30635;SDS011;17400;52.392;9.750;2024-01-07T09:23:15;4.13;;;2.13;;
30635;SDS011;17400;52.392;9.750;2024-01-07T09:25:43;3.30;;;2.00;;
30635;SDS011;17400;52.392;9.750;2024-01-07T09:28:12;6.13;;;2.10;;
30635;SDS011;17400;52.392;9.750;2024-01-07T09:30:40;5.80;;;2.50;;
30635;SDS011;17400;52.392;9.750;2024-01-07T09:33:08;4.20;;;2.07;;
30635;SDS011;17400;52.392;9.750;2024-01-07T09:35:37;7.03;;;2.40;;
30635;SDS011;17400;52.392;9.750;2024-01-07T09:38:06;4.10;;;2.60;;
30635;SDS011;17400;52.392;9.750;2024-01-07T09:40:38;6.07;;;2.20;;
30635;SDS011;17400;52.392;9.750;2024-01-07T09:43:06;4.00;;;2.30;;
30635;SDS011;17400;52.392;9.750;2024-01-07T09:45:35;4.40;;;2.13;;
30635;SDS011;17400;52.392;9.750;2024-01-07T09:48:05;5.27;;;2.10;;
30635;SDS011;17400;52.392;9.750;2024-01-07T09:50:34;6.63;;;2.50;;
30635;SDS011;17400;52.392;9.750;2024-01-07T09:53:02;3.80;;;2.03;;
30635;SDS011;17400;52.392;9.750;2024-01-07T09:55:33;4.33;;;2.87;;
30635;SDS011;17400;52.392;9.750;2024-01-07T09:58:05;4.73;;;2.10;;
30635;SDS011;17400;52.392;9.750;2024-01-07T10:00:32;6.30;;;2.50;;
30635;SDS011;17400;52.392;9.750;2024-01-07T10:03:01;5.37;;;1.87;;
30635;SDS011;17400;52.392;9.750;2024-01-07T10:05:31;3.23;;;2.20;;
30635;SDS011;17400;52.392;9.750;2024-01-07T10:07:59;4.63;;;2.37;;
30635;SDS011;17400;52.392;9.750;2024-01-07T10:10:28;3.77;;;2.37;;
30635;SDS011;17400;52.392;9.750;2024-01-07T10:12:57;3.83;;;1.97;;
30635;SDS011;17400;52.392;9.750;2024-01-07T10:15:25;4.97;;;1.90;;
30635;SDS011;17400;52.392;9.750;2024-01-07T10:17:54;4.87;;;2.83;;
30635;SDS011;17400;52.392;9.750;2024-01-07T10:20:22;5.20;;;2.90;;
30635;SDS011;17400;52.392;9.750;2024-01-07T10:22:50;5.20;;;2.47;;
30635;SDS011;17400;52.392;9.750;2024-01-07T10:25:19;5.43;;;2.50;;
30635;SDS011;17400;52.392;9.750;2024-01-07T10:27:47;5.60;;;2.70;;
30635;SDS011;17400;52.392;9.750;2024-01-07T10:30:17;4.53;;;2.37;;
30635;SDS011;17400;52.392;9.750;2024-01-07T10:32:45;5.40;;;2.90;;
30635;SDS011;17400;52.392;9.750;2024-01-07T10:35:13;3.40;;;2.03;;
30635;SDS011;17400;52.392;9.750;2024-01-07T10:37:42;5.23;;;2.63;;
30635;SDS011;17400;52.392;9.750;2024-01-07T10:40:11;5.77;;;2.50;;
30635;SDS011;17400;52.392;9.750;2024-01-07T10:42:41;3.93;;;2.40;;
30635;SDS011;17400;52.392;9.750;2024-01-07T10:45:10;3.90;;;2.13;;
30635;SDS011;17400;52.392;9.750;2024-01-07T10:47:40;5.87;;;3.07;;
30635;SDS011;17400;52.392;9.750;2024-01-07T10:50:08;6.80;;;2.90;;
30635;SDS011;17400;52.392;9.750;2024-01-07T10:52:39;5.13;;;3.00;;
30635;SDS011;17400;52.392;9.750;2024-01-07T10:55:08;8.03;;;3.67;;
30635;SDS011;17400;52.392;9.750;2024-01-07T10:57:41;6.73;;;2.90;;
30635;SDS011;17400;52.392;9.750;2024-01-07T11:00:11;6.50;;;4.67;;
30635;SDS011;17400;52.392;9.750;2024-01-07T11:02:55;5.53;;;2.50;;
30635;SDS011;17400;52.392;9.750;2024-01-07T11:05:29;6.63;;;2.97;;
30635;SDS011;17400;52.392;9.750;2024-01-07T11:08:03;3.10;;;1.93;;
30635;SDS011;17400;52.392;9.750;2024-01-07T11:10:35;4.40;;;2.17;;
30635;SDS011;17400;52.392;9.750;2024-01-07T11:13:34;6.47;;;2.63;;
30635;SDS011;17400;52.392;9.750;2024-01-07T11:16:04;4.97;;;2.57;;
30635;SDS011;17400;52.392;9.750;2024-01-07T11:18:38;3.23;;;1.90;;
30635;SDS011;17400;52.392;9.750;2024-01-07T11:21:07;5.57;;;2.57;;
30635;SDS011;17400;52.392;9.750;2024-01-07T11:23:35;5.13;;;3.00;;
30635;SDS011;17400;52.392;9.750;2024-01-07T11:26:06;6.37;;;2.83;;
30635;SDS011;17400;52.392;9.750;2024-01-07T11:28:42;5.40;;;2.60;;
30635;SDS011;17400;52.392;9.750;2024-01-07T11:31:12;6.83;;;3.17;;
30635;SDS011;17400;52.392;9.750;2024-01-07T11:33:42;5.80;;;2.23;;
30635;SDS011;17400;52.392;9.750;2024-01-07T11:36:12;4.40;;;2.70;;
30635;SDS011;17400;52.392;9.750;2024-01-07T11:38:41;7.50;;;3.30;;
30635;SDS011;17400;52.392;9.750;2024-01-07T11:41:09;4.33;;;2.30;;
30635;SDS011;17400;52.392;9.750;2024-01-07T11:43:51;5.07;;;2.30;;
30635;SDS011;17400;52.392;9.750;2024-01-07T11:46:24;5.63;;;2.33;;
30635;SDS011;17400;52.392;9.750;2024-01-07T11:48:54;4.33;;;2.03;;
30635;SDS011;17400;52.392;9.750;2024-01-07T11:51:25;2.90;;;2.10;;
30635;SDS011;17400;52.392;9.750;2024-01-07T11:53:54;4.43;;;2.27;;
30635;SDS011;17400;52.392;9.750;2024-01-07T11:56:22;2.63;;;2.00;;
30635;SDS011;17400;52.392;9.750;2024-01-07T11:58:52;8.30;;;2.93;;
30635;SDS011;17400;52.392;9.750;2024-01-07T12:01:20;6.17;;;2.57;;
30635;SDS011;17400;52.392;9.750;2024-01-07T12:03:48;4.50;;;2.57;;
30635;SDS011;17400;52.392;9.750;2024-01-07T12:06:18;7.63;;;3.23;;
30635;SDS011;17400;52.392;9.750;2024-01-07T12:08:46;4.00;;;2.40;;
30635;SDS011;17400;52.392;9.750;2024-01-07T12:11:14;5.47;;;2.80;;
30635;SDS011;17400;52.392;9.750;2024-01-07T12:13:43;3.83;;;2.27;;
30635;SDS011;17400;52.392;9.750;2024-01-07T12:16:12;4.90;;;2.47;;
30635;SDS011;17400;52.392;9.750;2024-01-07T12:18:40;7.00;;;2.97;;
30635;SDS011;17400;52.392;9.750;2024-01-07T12:21:08;9.07;;;2.70;;
30635;SDS011;17400;52.392;9.750;2024-01-07T12:23:38;6.47;;;2.73;;
30635;SDS011;17400;52.392;9.750;2024-01-07T12:26:09;5.63;;;2.67;;
30635;SDS011;17400;52.392;9.750;2024-01-07T12:28:38;4.83;;;2.30;;
30635;SDS011;17400;52.392;9.750;2024-01-07T12:31:06;4.63;;;2.10;;
30635;SDS011;17400;52.392;9.750;2024-01-07T12:33:36;2.87;;;1.93;;
30635;SDS011;17400;52.392;9.750;2024-01-07T12:36:06;3.60;;;2.00;;
30635;SDS011;17400;52.392;9.750;2024-01-07T12:38:37;4.60;;;2.20;;
30635;SDS011;17400;52.392;9.750;2024-01-07T12:41:05;4.77;;;2.27;;
30635;SDS011;17400;52.392;9.750;2024-01-07T12:43:33;8.23;;;3.27;;
30635;SDS011;17400;52.392;9.750;2024-01-07T12:46:01;7.67;;;3.33;;
30635;SDS011;17400;52.392;9.750;2024-01-07T12:48:32;5.43;;;2.87;;
30635;SDS011;17400;52.392;9.750;2024-01-07T12:51:00;5.27;;;2.80;;
30635;SDS011;17400;52.392;9.750;2024-01-07T12:53:28;5.10;;;2.27;;
30635;SDS011;17400;52.392;9.750;2024-01-07T12:55:58;6.33;;;2.50;;
30635;SDS011;17400;52.392;9.750;2024-01-07T12:58:25;6.10;;;1.97;;
30635;SDS011;17400;52.392;9.750;2024-01-07T13:00:54;3.17;;;1.70;;
30635;SDS011;17400;52.392;9.750;2024-01-07T13:03:21;4.93;;;2.37;;
30635;SDS011;17400;52.392;9.750;2024-01-07T13:05:51;6.00;;;2.77;;
30635;SDS011;17400;52.392;9.750;2024-01-07T13:08:19;4.47;;;2.37;;
30635;SDS011;17400;52.392;9.750;2024-01-07T13:10:49;4.37;;;2.17;;
30635;SDS011;17400;52.392;9.750;2024-01-07T13:13:18;4.23;;;1.70;;
30635;SDS011;17400;52.392;9.750;2024-01-07T13:15:46;4.30;;;2.17;;
30635;SDS011;17400;52.392;9.750;2024-01-07T13:18:13;3.93;;;2.30;;
30635;SDS011;17400;52.392;9.750;2024-01-07T13:20:44;3.70;;;2.20;;
30635;SDS011;17400;52.392;9.750;2024-01-07T13:23:12;4.53;;;2.90;;
30635;SDS011;17400;52.392;9.750;2024-01-07T13:25:40;8.37;;;3.27;;
30635;SDS011;17400;52.392;9.750;2024-01-07T13:28:08;4.17;;;2.53;;
30635;SDS011;17400;52.392;9.750;2024-01-07T13:30:39;6.47;;;3.17;;
30635;SDS011;17400;52.392;9.750;2024-01-07T13:33:08;4.70;;;2.37;;
30635;SDS011;17400;52.392;9.750;2024-01-07T13:35:39;4.33;;;2.23;;
30635;SDS011;17400;52.392;9.750;2024-01-07T13:38:07;5.13;;;1.83;;
30635;SDS011;17400;52.392;9.750;2024-01-07T13:40:36;5.13;;;2.90;;
30635;SDS011;17400;52.392;9.750;2024-01-07T13:43:03;2.47;;;2.00;;
30635;SDS011;17400;52.392;9.750;2024-01-07T13:45:31;3.50;;;2.53;;
30635;SDS011;17400;52.392;9.750;2024-01-07T13:48:04;2.40;;;1.60;;
30635;SDS011;17400;52.392;9.750;2024-01-07T13:50:34;1.67;;;1.20;;
30635;SDS011;17400;52.392;9.750;2024-01-07T13:53:02;5.27;;;1.90;;
30635;SDS011;17400;52.392;9.750;2024-01-07T13:55:30;3.37;;;1.77;;
30635;SDS011;17400;52.392;9.750;2024-01-07T13:57:58;8.00;;;4.33;;
30635;SDS011;17400;52.392;9.750;2024-01-07T14:00:26;6.27;;;2.50;;
30635;SDS011;17400;52.392;9.750;2024-01-07T14:02:54;3.53;;;2.40;;
30635;SDS011;17400;52.392;9.750;2024-01-07T14:05:23;3.13;;;1.57;;
30635;SDS011;17400;52.392;9.750;2024-01-07T14:07:51;4.73;;;2.10;;
30635;SDS011;17400;52.392;9.750;2024-01-07T14:10:19;4.40;;;2.23;;
30635;SDS011;17400;52.392;9.750;2024-01-07T14:12:47;7.03;;;2.07;;
30635;SDS011;17400;52.392;9.750;2024-01-07T14:15:15;3.83;;;2.70;;
30635;SDS011;17400;52.392;9.750;2024-01-07T14:17:44;3.93;;;1.93;;
30635;SDS011;17400;52.392;9.750;2024-01-07T14:20:12;4.40;;;2.17;;
30635;SDS011;17400;52.392;9.750;2024-01-07T14:22:41;4.50;;;1.80;;
30635;SDS011;17400;52.392;9.750;2024-01-07T14:25:09;3.17;;;1.90;;
30635;SDS011;17400;52.392;9.750;2024-01-07T14:27:37;4.60;;;2.03;;
30635;SDS011;17400;52.392;9.750;2024-01-07T14:30:05;2.67;;;1.60;;
30635;SDS011;17400;52.392;9.750;2024-01-07T14:32:34;4.93;;;2.97;;
30635;SDS011;17400;52.392;9.750;2024-01-07T14:35:03;4.90;;;2.37;;
30635;SDS011;17400;52.392;9.750;2024-01-07T14:37:31;4.07;;;2.10;;
30635;SDS011;17400;52.392;9.750;2024-01-07T14:40:00;2.70;;;1.47;;
30635;SDS011;17400;52.392;9.750;2024-01-07T14:42:30;4.93;;;2.23;;
30635;SDS011;17400;52.392;9.750;2024-01-07T14:44:58;2.80;;;1.80;;
30635;SDS011;17400;52.392;9.750;2024-01-07T14:47:26;5.70;;;2.60;;
30635;SDS011;17400;52.392;9.750;2024-01-07T14:49:54;4.70;;;2.23;;
30635;SDS011;17400;52.392;9.750;2024-01-07T14:52:21;4.47;;;2.83;;
30635;SDS011;17400;52.392;9.750;2024-01-07T14:54:49;5.23;;;2.20;;